KLRJ/LRJ METAR and TAF weather

Enter ICAO airport designator
Station Type Date Time Source
KLRJ METAR 2020/09/22 23:15 UTC NOAA

KLRJ 222315Z AUTO 17015KT 8SM CLR 28/12 A2996 RMK AO2


Station Type Date Time Source
KLRJ Decoded METAR 2020/09/22 23:15 UTC NOAA

Le Mars, Le Mars Municipal Airport, IA, United States (KLRJ) 42-46-41N 096-11-37W
Sep 22, 2020 - 07:15 PM EDT / 2020.09.22 2315 UTC
Wind: from the S (170 degrees) at 17 MPH (15 KT):0
Visibility: 8 mile(s):0
Sky conditions: clear
Temperature: 82 F (28 C)
Dew Point: 53 F (12 C)
Relative Humidity: 37%
Pressure (altimeter): 29.96 in. Hg (1014 hPa)
ob: KLRJ 222315Z AUTO 17015KT 8SM CLR 28/12 A2996 RMK AO2
cycle: 23

Station Type Date Time Source
KLRJ TAF UTC NOAA

Error!

Example: see airport list